sensor_id;sensor_type;location;lat;lon;timestamp;temperature;humidity
32201;DHT22;18701;45.588;5.288;2023-05-10T00:02:07;13.90;99.90
32201;DHT22;18701;45.588;5.288;2023-05-10T00:04:32;14.00;99.90
32201;DHT22;18701;45.588;5.288;2023-05-10T00:06:58;14.00;99.90
32201;DHT22;18701;45.588;5.288;2023-05-10T00:09:23;14.10;99.90
32201;DHT22;18701;45.588;5.288;2023-05-10T00:11:49;14.00;99.90
32201;DHT22;18701;45.588;5.288;2023-05-10T00:14:15;13.90;99.90
32201;DHT22;18701;45.588;5.288;2023-05-10T00:16:41;13.90;99.90
32201;DHT22;18701;45.588;5.288;2023-05-10T00:19:06;14.00;99.90
32201;DHT22;18701;45.588;5.288;2023-05-10T00:21:32;13.90;99.90
32201;DHT22;18701;45.588;5.288;2023-05-10T00:23:59;14.00;99.90
32201;DHT22;18701;45.588;5.288;2023-05-10T00:26:25;13.90;99.90
32201;DHT22;18701;45.588;5.288;2023-05-10T00:28:50;13.90;99.90
32201;DHT22;18701;45.588;5.288;2023-05-10T00:31:16;13.90;99.90
32201;DHT22;18701;45.588;5.288;2023-05-10T00:33:42;13.90;99.90
32201;DHT22;18701;45.588;5.288;2023-05-10T00:36:07;13.50;99.90
32201;DHT22;18701;45.588;5.288;2023-05-10T00:38:33;13.60;99.90
32201;DHT22;18701;45.588;5.288;2023-05-10T00:40:59;13.60;99.90
32201;DHT22;18701;45.588;5.288;2023-05-10T00:43:25;13.70;99.90
32201;DHT22;18701;45.588;5.288;2023-05-10T00:45:50;13.60;99.90
32201;DHT22;18701;45.588;5.288;2023-05-10T00:48:16;13.70;99.90
32201;DHT22;18701;45.588;5.288;2023-05-10T00:50:42;13.70;99.90
32201;DHT22;18701;45.588;5.288;2023-05-10T00:53:08;13.70;99.90
32201;DHT22;18701;45.588;5.288;2023-05-10T00:55:34;13.60;99.90
32201;DHT22;18701;45.588;5.288;2023-05-10T00:58:00;13.60;99.90
32201;DHT22;18701;45.588;5.288;2023-05-10T01:00:26;13.60;99.90
32201;DHT22;18701;45.588;5.288;2023-05-10T01:02:53;13.50;99.90
32201;DHT22;18701;45.588;5.288;2023-05-10T01:05:19;13.60;99.90
32201;DHT22;18701;45.588;5.288;2023-05-10T01:07:45;13.70;99.90
32201;DHT22;18701;45.588;5.288;2023-05-10T01:10:11;13.80;99.90
32201;DHT22;18701;45.588;5.288;2023-05-10T01:12:39;13.70;99.90
32201;DHT22;18701;45.588;5.288;2023-05-10T01:15:07;13.80;99.90
32201;DHT22;18701;45.588;5.288;2023-05-10T01:17:34;13.60;99.90
32201;DHT22;18701;45.588;5.288;2023-05-10T01:20:01;13.80;99.90
32201;DHT22;18701;45.588;5.288;2023-05-10T01:23:26;13.80;99.90
32201;DHT22;18701;45.588;5.288;2023-05-10T01:25:37;13.80;99.90
32201;DHT22;18701;45.588;5.288;2023-05-10T01:31:14;13.90;99.90
32201;DHT22;18701;45.588;5.288;2023-05-10T01:33:55;13.90;99.90
32201;DHT22;18701;45.588;5.288;2023-05-10T01:39:38;13.80;99.90
32201;DHT22;18701;45.588;5.288;2023-05-10T01:42:11;13.80;99.90
32201;DHT22;18701;45.588;5.288;2023-05-10T01:44:49;13.80;99.90
32201;DHT22;18701;45.588;5.288;2023-05-10T01:50:02;13.80;99.90
32201;DHT22;18701;45.588;5.288;2023-05-10T01:52:33;13.80;99.90
32201;DHT22;18701;45.588;5.288;2023-05-10T01:55:05;13.70;99.90
32201;DHT22;18701;45.588;5.288;2023-05-10T01:57:34;13.70;99.90
32201;DHT22;18701;45.588;5.288;2023-05-10T02:00:02;13.70;99.90
32201;DHT22;18701;45.588;5.288;2023-05-10T02:02:31;13.80;99.90
32201;DHT22;18701;45.588;5.288;2023-05-10T02:04:59;13.80;99.90
32201;DHT22;18701;45.588;5.288;2023-05-10T02:07:27;13.80;99.90
32201;DHT22;18701;45.588;5.288;2023-05-10T02:09:53;13.80;99.90
32201;DHT22;18701;45.588;5.288;2023-05-10T02:12:20;13.70;99.90
32201;DHT22;18701;45.588;5.288;2023-05-10T02:14:47;13.70;99.90
32201;DHT22;18701;45.588;5.288;2023-05-10T02:17:13;13.60;99.90
32201;DHT22;18701;45.588;5.288;2023-05-10T02:19:41;13.70;99.90
32201;DHT22;18701;45.588;5.288;2023-05-10T02:22:08;13.80;99.90
32201;DHT22;18701;45.588;5.288;2023-05-10T02:24:34;13.80;99.90
32201;DHT22;18701;45.588;5.288;2023-05-10T02:27:02;13.80;99.90
32201;DHT22;18701;45.588;5.288;2023-05-10T02:29:29;13.80;99.90
32201;DHT22;18701;45.588;5.288;2023-05-10T02:31:57;13.80;99.90
32201;DHT22;18701;45.588;5.288;2023-05-10T02:34:25;13.80;99.90
32201;DHT22;18701;45.588;5.288;2023-05-10T02:36:53;13.90;99.90
32201;DHT22;18701;45.588;5.288;2023-05-10T02:39:19;13.80;99.90
32201;DHT22;18701;45.588;5.288;2023-05-10T02:41:47;13.90;99.90
32201;DHT22;18701;45.588;5.288;2023-05-10T02:44:15;13.80;99.90
32201;DHT22;18701;45.588;5.288;2023-05-10T02:46:41;13.80;99.90
32201;DHT22;18701;45.588;5.288;2023-05-10T02:49:06;13.80;99.90
32201;DHT22;18701;45.588;5.288;2023-05-10T02:51:35;13.90;99.90
32201;DHT22;18701;45.588;5.288;2023-05-10T02:54:09;13.80;99.90
32201;DHT22;18701;45.588;5.288;2023-05-10T02:56:36;13.70;99.90
32201;DHT22;18701;45.588;5.288;2023-05-10T02:59:05;13.80;99.90
32201;DHT22;18701;45.588;5.288;2023-05-10T03:01:30;13.80;99.90
32201;DHT22;18701;45.588;5.288;2023-05-10T03:03:56;13.70;99.90
32201;DHT22;18701;45.588;5.288;2023-05-10T03:06:21;13.80;99.90
32201;DHT22;18701;45.588;5.288;2023-05-10T03:08:47;13.80;99.90
32201;DHT22;18701;45.588;5.288;2023-05-10T03:11:39;13.80;99.90
32201;DHT22;18701;45.588;5.288;2023-05-10T03:16:48;13.80;99.90
32201;DHT22;18701;45.588;5.288;2023-05-10T03:19:24;13.90;99.90
32201;DHT22;18701;45.588;5.288;2023-05-10T03:21:51;13.70;99.90
32201;DHT22;18701;45.588;5.288;2023-05-10T03:24:21;13.90;99.90
32201;DHT22;18701;45.588;5.288;2023-05-10T03:26:48;13.90;99.90
32201;DHT22;18701;45.588;5.288;2023-05-10T03:29:14;13.90;99.90
32201;DHT22;18701;45.588;5.288;2023-05-10T03:31:41;13.90;99.90
32201;DHT22;18701;45.588;5.288;2023-05-10T03:34:06;13.80;99.90
32201;DHT22;18701;45.588;5.288;2023-05-10T03:36:32;13.80;99.90
32201;DHT22;18701;45.588;5.288;2023-05-10T03:38:58;13.70;99.90
32201;DHT22;18701;45.588;5.288;2023-05-10T03:41:24;13.80;99.90
32201;DHT22;18701;45.588;5.288;2023-05-10T03:43:50;13.80;99.90
32201;DHT22;18701;45.588;5.288;2023-05-10T03:46:16;13.80;99.90
32201;DHT22;18701;45.588;5.288;2023-05-10T03:48:42;13.90;99.90
32201;DHT22;18701;45.588;5.288;2023-05-10T03:51:07;13.80;99.90
32201;DHT22;18701;45.588;5.288;2023-05-10T03:53:33;13.80;99.90
32201;DHT22;18701;45.588;5.288;2023-05-10T03:55:59;13.80;99.90
32201;DHT22;18701;45.588;5.288;2023-05-10T03:58:25;13.70;99.90
32201;DHT22;18701;45.588;5.288;2023-05-10T04:00:51;13.80;99.90
32201;DHT22;18701;45.588;5.288;2023-05-10T04:03:17;13.80;99.90
32201;DHT22;18701;45.588;5.288;2023-05-10T04:05:43;13.80;99.90
32201;DHT22;18701;45.588;5.288;2023-05-10T04:08:11;13.80;99.90
32201;DHT22;18701;45.588;5.288;2023-05-10T04:10:37;13.80;99.90
32201;DHT22;18701;45.588;5.288;2023-05-10T04:13:03;13.70;99.90
32201;DHT22;18701;45.588;5.288;2023-05-10T04:15:28;13.60;99.90
32201;DHT22;18701;45.588;5.288;2023-05-10T04:17:54;13.70;99.90
32201;DHT22;18701;45.588;5.288;2023-05-10T04:20:19;13.60;99.90
32201;DHT22;18701;45.588;5.288;2023-05-10T04:22:45;13.60;99.90
32201;DHT22;18701;45.588;5.288;2023-05-10T04:25:11;13.60;99.90
32201;DHT22;18701;45.588;5.288;2023-05-10T04:27:36;13.60;99.90
32201;DHT22;18701;45.588;5.288;2023-05-10T04:30:02;13.50;99.90
32201;DHT22;18701;45.588;5.288;2023-05-10T04:32:28;13.20;99.90
32201;DHT22;18701;45.588;5.288;2023-05-10T04:34:54;13.50;99.90
32201;DHT22;18701;45.588;5.288;2023-05-10T04:37:20;13.30;99.90
32201;DHT22;18701;45.588;5.288;2023-05-10T04:39:46;13.20;99.90
32201;DHT22;18701;45.588;5.288;2023-05-10T04:42:12;13.00;99.90
32201;DHT22;18701;45.588;5.288;2023-05-10T04:44:40;13.00;99.90
32201;DHT22;18701;45.588;5.288;2023-05-10T04:47:06;13.00;99.90
32201;DHT22;18701;45.588;5.288;2023-05-10T04:49:31;12.90;99.90
32201;DHT22;18701;45.588;5.288;2023-05-10T04:51:57;13.00;99.90
32201;DHT22;18701;45.588;5.288;2023-05-10T04:54:23;13.00;99.90
32201;DHT22;18701;45.588;5.288;2023-05-10T04:56:49;12.90;99.90
32201;DHT22;18701;45.588;5.288;2023-05-10T04:59:14;12.80;99.90
32201;DHT22;18701;45.588;5.288;2023-05-10T05:01:40;12.90;99.90
32201;DHT22;18701;45.588;5.288;2023-05-10T05:04:05;12.80;99.90
32201;DHT22;18701;45.588;5.288;2023-05-10T05:06:32;12.50;99.90
32201;DHT22;18701;45.588;5.288;2023-05-10T05:08:58;12.50;99.90
32201;DHT22;18701;45.588;5.288;2023-05-10T05:11:23;12.50;99.90
32201;DHT22;18701;45.588;5.288;2023-05-10T05:13:50;12.50;99.90
32201;DHT22;18701;45.588;5.288;2023-05-10T05:16:16;12.40;99.90
32201;DHT22;18701;45.588;5.288;2023-05-10T05:18:42;12.20;99.90
32201;DHT22;18701;45.588;5.288;2023-05-10T05:21:14;12.10;99.90
32201;DHT22;18701;45.588;5.288;2023-05-10T05:23:41;12.20;99.90
32201;DHT22;18701;45.588;5.288;2023-05-10T05:26:07;12.10;99.90
32201;DHT22;18701;45.588;5.288;2023-05-10T05:28:32;12.20;99.90
32201;DHT22;18701;45.588;5.288;2023-05-10T05:31:00;12.30;99.90
32201;DHT22;18701;45.588;5.288;2023-05-10T05:33:25;12.30;99.90
32201;DHT22;18701;45.588;5.288;2023-05-10T05:35:51;12.30;99.90
32201;DHT22;18701;45.588;5.288;2023-05-10T05:38:17;12.50;99.90
32201;DHT22;18701;45.588;5.288;2023-05-10T05:40:42;12.50;99.90
32201;DHT22;18701;45.588;5.288;2023-05-10T05:43:08;12.60;99.90
32201;DHT22;18701;45.588;5.288;2023-05-10T05:45:37;12.50;99.90
32201;DHT22;18701;45.588;5.288;2023-05-10T05:48:07;12.70;99.90
32201;DHT22;18701;45.588;5.288;2023-05-10T05:50:32;12.70;99.90
32201;DHT22;18701;45.588;5.288;2023-05-10T05:52:58;12.70;99.90
32201;DHT22;18701;45.588;5.288;2023-05-10T05:55:23;12.80;99.90
32201;DHT22;18701;45.588;5.288;2023-05-10T05:57:51;12.60;99.90
32201;DHT22;18701;45.588;5.288;2023-05-10T06:00:16;12.60;99.90
32201;DHT22;18701;45.588;5.288;2023-05-10T06:02:42;12.80;99.90
32201;DHT22;18701;45.588;5.288;2023-05-10T06:05:08;12.60;99.90
32201;DHT22;18701;45.588;5.288;2023-05-10T06:07:34;12.50;99.90
32201;DHT22;18701;45.588;5.288;2023-05-10T06:09:59;12.20;99.90
32201;DHT22;18701;45.588;5.288;2023-05-10T06:12:25;12.40;99.90
32201;DHT22;18701;45.588;5.288;2023-05-10T06:14:51;12.40;99.90
32201;DHT22;18701;45.588;5.288;2023-05-10T06:17:16;12.30;99.90
32201;DHT22;18701;45.588;5.288;2023-05-10T06:19:42;12.50;99.90
32201;DHT22;18701;45.588;5.288;2023-05-10T06:22:08;12.70;99.90
32201;DHT22;18701;45.588;5.288;2023-05-10T06:24:33;12.80;99.90
32201;DHT22;18701;45.588;5.288;2023-05-10T06:26:59;12.70;99.90
32201;DHT22;18701;45.588;5.288;2023-05-10T06:29:25;12.80;99.90
32201;DHT22;18701;45.588;5.288;2023-05-10T06:31:51;12.80;99.90
32201;DHT22;18701;45.588;5.288;2023-05-10T06:34:17;12.80;99.90
32201;DHT22;18701;45.588;5.288;2023-05-10T06:36:42;12.90;99.90
32201;DHT22;18701;45.588;5.288;2023-05-10T06:39:08;13.00;99.90
32201;DHT22;18701;45.588;5.288;2023-05-10T06:41:33;13.00;99.90
32201;DHT22;18701;45.588;5.288;2023-05-10T06:43:59;13.10;99.90
32201;DHT22;18701;45.588;5.288;2023-05-10T06:46:25;13.30;99.90
32201;DHT22;18701;45.588;5.288;2023-05-10T06:48:50;13.40;99.90
32201;DHT22;18701;45.588;5.288;2023-05-10T06:51:16;13.50;99.90
32201;DHT22;18701;45.588;5.288;2023-05-10T06:53:41;13.60;99.90
32201;DHT22;18701;45.588;5.288;2023-05-10T06:56:07;13.70;99.90
32201;DHT22;18701;45.588;5.288;2023-05-10T06:58:33;13.40;99.90
32201;DHT22;18701;45.588;5.288;2023-05-10T07:01:02;13.40;99.90
32201;DHT22;18701;45.588;5.288;2023-05-10T07:03:28;13.40;99.90
32201;DHT22;18701;45.588;5.288;2023-05-10T07:05:54;13.30;99.90
32201;DHT22;18701;45.588;5.288;2023-05-10T07:08:25;13.40;99.90
32201;DHT22;18701;45.588;5.288;2023-05-10T07:10:50;13.70;99.90
32201;DHT22;18701;45.588;5.288;2023-05-10T07:13:16;13.70;99.90
32201;DHT22;18701;45.588;5.288;2023-05-10T07:15:41;13.50;99.90
32201;DHT22;18701;45.588;5.288;2023-05-10T07:18:07;13.70;99.90
32201;DHT22;18701;45.588;5.288;2023-05-10T07:20:33;13.70;99.90
32201;DHT22;18701;45.588;5.288;2023-05-10T07:22:58;13.50;99.90
32201;DHT22;18701;45.588;5.288;2023-05-10T07:25:24;13.90;99.90
32201;DHT22;18701;45.588;5.288;2023-05-10T07:27:50;13.80;99.90
32201;DHT22;18701;45.588;5.288;2023-05-10T07:30:16;13.70;99.90
32201;DHT22;18701;45.588;5.288;2023-05-10T07:32:41;13.80;99.90
32201;DHT22;18701;45.588;5.288;2023-05-10T07:35:08;14.00;99.90
32201;DHT22;18701;45.588;5.288;2023-05-10T07:37:33;13.70;99.90
32201;DHT22;18701;45.588;5.288;2023-05-10T07:39:59;13.60;99.90
32201;DHT22;18701;45.588;5.288;2023-05-10T07:42:24;13.60;99.90
32201;DHT22;18701;45.588;5.288;2023-05-10T07:44:52;13.90;99.90
32201;DHT22;18701;45.588;5.288;2023-05-10T07:47:18;13.90;99.90
32201;DHT22;18701;45.588;5.288;2023-05-10T07:49:44;13.70;99.90
32201;DHT22;18701;45.588;5.288;2023-05-10T07:52:09;13.90;99.90
32201;DHT22;18701;45.588;5.288;2023-05-10T07:54:35;14.10;99.90
32201;DHT22;18701;45.588;5.288;2023-05-10T07:57:00;14.40;99.90
32201;DHT22;18701;45.588;5.288;2023-05-10T07:59:26;14.50;99.90
32201;DHT22;18701;45.588;5.288;2023-05-10T08:01:52;14.30;99.90
32201;DHT22;18701;45.588;5.288;2023-05-10T08:04:17;14.40;99.90
32201;DHT22;18701;45.588;5.288;2023-05-10T08:06:43;14.50;99.90
32201;DHT22;18701;45.588;5.288;2023-05-10T08:09:09;14.70;99.90
32201;DHT22;18701;45.588;5.288;2023-05-10T08:11:34;14.80;99.90
32201;DHT22;18701;45.588;5.288;2023-05-10T08:14:00;14.70;99.90
32201;DHT22;18701;45.588;5.288;2023-05-10T08:16:26;14.80;99.90
32201;DHT22;18701;45.588;5.288;2023-05-10T08:18:51;15.20;99.90
32201;DHT22;18701;45.588;5.288;2023-05-10T08:21:17;15.40;99.90
32201;DHT22;18701;45.588;5.288;2023-05-10T08:23:43;15.20;99.90
32201;DHT22;18701;45.588;5.288;2023-05-10T08:26:11;15.00;99.90
32201;DHT22;18701;45.588;5.288;2023-05-10T08:28:37;14.80;99.90
32201;DHT22;18701;45.588;5.288;2023-05-10T08:31:04;15.00;99.90
32201;DHT22;18701;45.588;5.288;2023-05-10T08:33:30;14.80;99.90
32201;DHT22;18701;45.588;5.288;2023-05-10T08:35:55;15.00;99.90
32201;DHT22;18701;45.588;5.288;2023-05-10T08:38:21;14.90;99.90
32201;DHT22;18701;45.588;5.288;2023-05-10T08:40:49;14.90;99.90
32201;DHT22;18701;45.588;5.288;2023-05-10T08:43:16;14.90;99.90
32201;DHT22;18701;45.588;5.288;2023-05-10T08:45:44;15.10;99.90
32201;DHT22;18701;45.588;5.288;2023-05-10T08:48:13;15.00;99.90
32201;DHT22;18701;45.588;5.288;2023-05-10T08:50:40;15.40;99.90
32201;DHT22;18701;45.588;5.288;2023-05-10T08:53:10;15.20;99.90
32201;DHT22;18701;45.588;5.288;2023-05-10T08:55:36;15.00;99.90
32201;DHT22;18701;45.588;5.288;2023-05-10T08:58:04;15.00;99.90
32201;DHT22;18701;45.588;5.288;2023-05-10T09:00:30;14.90;99.90
32201;DHT22;18701;45.588;5.288;2023-05-10T09:02:58;15.20;99.90
32201;DHT22;18701;45.588;5.288;2023-05-10T09:05:24;15.30;99.90
32201;DHT22;18701;45.588;5.288;2023-05-10T09:07:49;15.30;99.90
32201;DHT22;18701;45.588;5.288;2023-05-10T09:10:15;15.40;99.90
32201;DHT22;18701;45.588;5.288;2023-05-10T09:12:41;15.60;99.90
32201;DHT22;18701;45.588;5.288;2023-05-10T09:15:09;15.20;99.90
32201;DHT22;18701;45.588;5.288;2023-05-10T09:17:36;15.10;99.90
32201;DHT22;18701;45.588;5.288;2023-05-10T09:20:03;14.80;99.90
32201;DHT22;18701;45.588;5.288;2023-05-10T09:22:35;14.70;99.90
32201;DHT22;18701;45.588;5.288;2023-05-10T09:27:30;15.00;99.90
32201;DHT22;18701;45.588;5.288;2023-05-10T09:29:56;14.60;99.90
32201;DHT22;18701;45.588;5.288;2023-05-10T09:32:21;14.50;99.90
32201;DHT22;18701;45.588;5.288;2023-05-10T09:34:49;14.40;99.90
32201;DHT22;18701;45.588;5.288;2023-05-10T09:37:15;14.20;99.90
32201;DHT22;18701;45.588;5.288;2023-05-10T09:39:40;14.50;99.90
32201;DHT22;18701;45.588;5.288;2023-05-10T09:42:10;14.40;99.90
32201;DHT22;18701;45.588;5.288;2023-05-10T09:44:36;14.50;99.90
32201;DHT22;18701;45.588;5.288;2023-05-10T09:47:02;14.70;99.90
32201;DHT22;18701;45.588;5.288;2023-05-10T09:49:29;14.80;99.90
32201;DHT22;18701;45.588;5.288;2023-05-10T09:52:06;14.80;99.90
32201;DHT22;18701;45.588;5.288;2023-05-10T09:54:32;14.80;99.90
32201;DHT22;18701;45.588;5.288;2023-05-10T09:56:58;14.40;99.90
32201;DHT22;18701;45.588;5.288;2023-05-10T09:59:25;14.60;99.90
32201;DHT22;18701;45.588;5.288;2023-05-10T10:01:53;14.50;99.90
32201;DHT22;18701;45.588;5.288;2023-05-10T10:04:21;14.70;99.90
32201;DHT22;18701;45.588;5.288;2023-05-10T10:06:46;14.10;99.90
32201;DHT22;18701;45.588;5.288;2023-05-10T10:09:23;14.30;99.90
32201;DHT22;18701;45.588;5.288;2023-05-10T10:11:49;14.50;99.90
32201;DHT22;18701;45.588;5.288;2023-05-10T10:14:14;14.30;99.90
32201;DHT22;18701;45.588;5.288;2023-05-10T10:16:41;14.30;99.90
32201;DHT22;18701;45.588;5.288;2023-05-10T10:19:07;14.40;99.90
32201;DHT22;18701;45.588;5.288;2023-05-10T10:21:33;14.60;99.90
32201;DHT22;18701;45.588;5.288;2023-05-10T10:23:58;14.90;99.90
32201;DHT22;18701;45.588;5.288;2023-05-10T10:26:25;14.60;99.90
32201;DHT22;18701;45.588;5.288;2023-05-10T10:31:45;14.90;99.90
32201;DHT22;18701;45.588;5.288;2023-05-10T10:34:26;14.70;99.90
32201;DHT22;18701;45.588;5.288;2023-05-10T10:36:54;14.30;99.90
32201;DHT22;18701;45.588;5.288;2023-05-10T10:39:20;14.50;99.90
32201;DHT22;18701;45.588;5.288;2023-05-10T10:41:54;14.80;99.90
32201;DHT22;18701;45.588;5.288;2023-05-10T10:49:28;15.10;99.90
32201;DHT22;18701;45.588;5.288;2023-05-10T10:52:27;15.10;99.90
32201;DHT22;18701;45.588;5.288;2023-05-10T10:55:13;15.20;99.90
32201;DHT22;18701;45.588;5.288;2023-05-10T10:57:57;15.20;99.90
32201;DHT22;18701;45.588;5.288;2023-05-10T11:00:33;15.20;99.90
32201;DHT22;18701;45.588;5.288;2023-05-10T11:03:04;15.40;99.90
32201;DHT22;18701;45.588;5.288;2023-05-10T11:05:41;15.50;99.90
32201;DHT22;18701;45.588;5.288;2023-05-10T11:08:28;15.40;99.90
32201;DHT22;18701;45.588;5.288;2023-05-10T11:15:59;15.30;99.90
32201;DHT22;18701;45.588;5.288;2023-05-10T11:18:36;15.50;99.90
32201;DHT22;18701;45.588;5.288;2023-05-10T11:21:03;16.10;99.90
32201;DHT22;18701;45.588;5.288;2023-05-10T11:23:51;16.20;99.90
32201;DHT22;18701;45.588;5.288;2023-05-10T11:26:18;16.30;99.90
32201;DHT22;18701;45.588;5.288;2023-05-10T11:28:48;16.00;99.90
32201;DHT22;18701;45.588;5.288;2023-05-10T11:31:18;16.00;99.90
32201;DHT22;18701;45.588;5.288;2023-05-10T11:33:52;16.00;99.90
32201;DHT22;18701;45.588;5.288;2023-05-10T11:36:23;16.40;99.90
32201;DHT22;18701;45.588;5.288;2023-05-10T11:38:49;17.30;99.90
32201;DHT22;18701;45.588;5.288;2023-05-10T11:41:17;17.50;99.90
32201;DHT22;18701;45.588;5.288;2023-05-10T11:43:43;17.90;99.90
32201;DHT22;18701;45.588;5.288;2023-05-10T11:46:12;17.10;99.90
32201;DHT22;18701;45.588;5.288;2023-05-10T11:48:39;17.30;99.90
32201;DHT22;18701;45.588;5.288;2023-05-10T11:51:05;17.40;99.90
32201;DHT22;18701;45.588;5.288;2023-05-10T11:53:32;17.50;99.90
32201;DHT22;18701;45.588;5.288;2023-05-10T11:56:08;17.20;99.90
32201;DHT22;18701;45.588;5.288;2023-05-10T11:58:36;17.30;99.90
32201;DHT22;18701;45.588;5.288;2023-05-10T12:01:03;17.70;99.90
32201;DHT22;18701;45.588;5.288;2023-05-10T12:03:29;17.90;99.90
32201;DHT22;18701;45.588;5.288;2023-05-10T12:05:56;18.00;99.90
32201;DHT22;18701;45.588;5.288;2023-05-10T12:08:24;17.80;99.90
32201;DHT22;18701;45.588;5.288;2023-05-10T12:10:50;17.80;99.90
32201;DHT22;18701;45.588;5.288;2023-05-10T12:13:16;18.20;99.90
32201;DHT22;18701;45.588;5.288;2023-05-10T12:15:43;18.20;99.90
32201;DHT22;18701;45.588;5.288;2023-05-10T12:18:09;18.10;99.90
32201;DHT22;18701;45.588;5.288;2023-05-10T12:20:36;17.90;99.90
32201;DHT22;18701;45.588;5.288;2023-05-10T12:23:02;17.60;99.90
32201;DHT22;18701;45.588;5.288;2023-05-10T12:25:33;18.20;99.90
32201;DHT22;18701;45.588;5.288;2023-05-10T12:28:00;18.60;99.90
32201;DHT22;18701;45.588;5.288;2023-05-10T12:30:29;18.60;99.90
32201;DHT22;18701;45.588;5.288;2023-05-10T12:33:15;19.30;99.90
32201;DHT22;18701;45.588;5.288;2023-05-10T12:35:51;19.60;99.90
32201;DHT22;18701;45.588;5.288;2023-05-10T12:38:27;19.70;99.90
32201;DHT22;18701;45.588;5.288;2023-05-10T12:40:56;19.70;99.80
32201;DHT22;18701;45.588;5.288;2023-05-10T12:43:22;18.80;98.80
32201;DHT22;18701;45.588;5.288;2023-05-10T12:45:47;18.40;99.90
32201;DHT22;18701;45.588;5.288;2023-05-10T12:48:14;18.60;99.70
32201;DHT22;18701;45.588;5.288;2023-05-10T12:50:40;18.20;99.90
32201;DHT22;18701;45.588;5.288;2023-05-10T12:53:06;18.20;99.90
32201;DHT22;18701;45.588;5.288;2023-05-10T12:55:31;18.40;99.90
32201;DHT22;18701;45.588;5.288;2023-05-10T12:57:57;18.60;99.20
32201;DHT22;18701;45.588;5.288;2023-05-10T13:00:23;18.60;99.40
32201;DHT22;18701;45.588;5.288;2023-05-10T13:02:48;18.20;99.70
32201;DHT22;18701;45.588;5.288;2023-05-10T13:05:14;18.20;99.30
32201;DHT22;18701;45.588;5.288;2023-05-10T13:07:40;18.60;99.70
32201;DHT22;18701;45.588;5.288;2023-05-10T13:10:06;18.90;99.90
32201;DHT22;18701;45.588;5.288;2023-05-10T13:12:32;18.60;98.60
32201;DHT22;18701;45.588;5.288;2023-05-10T13:14:58;18.70;98.40
32201;DHT22;18701;45.588;5.288;2023-05-10T13:17:25;18.70;98.20
32201;DHT22;18701;45.588;5.288;2023-05-10T13:19:51;19.20;98.60
32201;DHT22;18701;45.588;5.288;2023-05-10T13:22:17;19.50;98.80
32201;DHT22;18701;45.588;5.288;2023-05-10T13:24:42;20.10;97.60
32201;DHT22;18701;45.588;5.288;2023-05-10T13:27:08;20.60;97.50
32201;DHT22;18701;45.588;5.288;2023-05-10T13:29:34;19.50;97.50
32201;DHT22;18701;45.588;5.288;2023-05-10T13:32:00;19.10;98.10
32201;DHT22;18701;45.588;5.288;2023-05-10T13:34:26;19.20;97.60
32201;DHT22;18701;45.588;5.288;2023-05-10T13:36:52;18.90;98.80
32201;DHT22;18701;45.588;5.288;2023-05-10T13:39:19;19.70;98.60
32201;DHT22;18701;45.588;5.288;2023-05-10T13:41:45;19.50;97.50
32201;DHT22;18701;45.588;5.288;2023-05-10T13:44:14;20.10;97.90
32201;DHT22;18701;45.588;5.288;2023-05-10T13:46:41;20.60;97.30
32201;DHT22;18701;45.588;5.288;2023-05-10T13:49:09;21.30;96.50
32201;DHT22;18701;45.588;5.288;2023-05-10T13:51:34;20.60;96.80
32201;DHT22;18701;45.588;5.288;2023-05-10T13:54:01;20.30;97.10
32201;DHT22;18701;45.588;5.288;2023-05-10T13:56:27;19.70;97.10
32201;DHT22;18701;45.588;5.288;2023-05-10T13:58:52;19.70;97.00
32201;DHT22;18701;45.588;5.288;2023-05-10T14:01:18;19.90;97.70
32201;DHT22;18701;45.588;5.288;2023-05-10T14:03:44;19.50;96.80
32201;DHT22;18701;45.588;5.288;2023-05-10T14:06:10;18.80;97.60
32201;DHT22;18701;45.588;5.288;2023-05-10T14:08:35;19.20;97.90
32201;DHT22;18701;45.588;5.288;2023-05-10T14:11:01;18.50;97.30
32201;DHT22;18701;45.588;5.288;2023-05-10T14:13:27;18.70;96.40
32201;DHT22;18701;45.588;5.288;2023-05-10T14:15:54;19.10;96.90
32201;DHT22;18701;45.588;5.288;2023-05-10T14:18:20;18.60;96.90
32201;DHT22;18701;45.588;5.288;2023-05-10T14:20:46;19.50;97.10
32201;DHT22;18701;45.588;5.288;2023-05-10T14:23:12;19.90;97.20
32201;DHT22;18701;45.588;5.288;2023-05-10T14:25:41;19.70;97.20
32201;DHT22;18701;45.588;5.288;2023-05-10T14:28:07;19.40;97.20
32201;DHT22;18701;45.588;5.288;2023-05-10T14:30:32;19.90;96.90
32201;DHT22;18701;45.588;5.288;2023-05-10T14:33:00;19.60;96.30
32201;DHT22;18701;45.588;5.288;2023-05-10T14:35:27;18.80;97.00
32201;DHT22;18701;45.588;5.288;2023-05-10T14:37:53;18.60;98.30
32201;DHT22;18701;45.588;5.288;2023-05-10T14:40:18;18.90;98.50
32201;DHT22;18701;45.588;5.288;2023-05-10T14:42:44;18.80;98.40
32201;DHT22;18701;45.588;5.288;2023-05-10T14:45:10;18.80;99.40
32201;DHT22;18701;45.588;5.288;2023-05-10T14:47:36;18.20;98.90
32201;DHT22;18701;45.588;5.288;2023-05-10T14:50:02;18.40;99.10
32201;DHT22;18701;45.588;5.288;2023-05-10T14:52:27;18.20;98.50
32201;DHT22;18701;45.588;5.288;2023-05-10T14:54:53;18.00;98.80
32201;DHT22;18701;45.588;5.288;2023-05-10T14:57:19;18.30;99.90
32201;DHT22;18701;45.588;5.288;2023-05-10T14:59:44;18.90;99.90
32201;DHT22;18701;45.588;5.288;2023-05-10T15:02:10;19.10;99.70
32201;DHT22;18701;45.588;5.288;2023-05-10T15:04:36;19.00;99.50
32201;DHT22;18701;45.588;5.288;2023-05-10T15:07:02;19.10;99.10
32201;DHT22;18701;45.588;5.288;2023-05-10T15:09:28;18.80;98.90
32201;DHT22;18701;45.588;5.288;2023-05-10T15:11:54;18.60;98.80
32201;DHT22;18701;45.588;5.288;2023-05-10T15:14:20;19.10;99.10
32201;DHT22;18701;45.588;5.288;2023-05-10T15:16:45;19.10;98.30
32201;DHT22;18701;45.588;5.288;2023-05-10T15:19:12;19.30;98.40
32201;DHT22;18701;45.588;5.288;2023-05-10T15:21:37;19.60;97.90
32201;DHT22;18701;45.588;5.288;2023-05-10T15:24:07;19.30;97.10
32201;DHT22;18701;45.588;5.288;2023-05-10T15:26:33;18.80;97.50
32201;DHT22;18701;45.588;5.288;2023-05-10T15:28:59;19.40;96.90
32201;DHT22;18701;45.588;5.288;2023-05-10T15:31:24;19.00;96.60
32201;DHT22;18701;45.588;5.288;2023-05-10T15:33:50;19.10;96.70
32201;DHT22;18701;45.588;5.288;2023-05-10T15:36:16;20.00;97.00
32201;DHT22;18701;45.588;5.288;2023-05-10T15:38:43;20.20;96.50
32201;DHT22;18701;45.588;5.288;2023-05-10T15:41:09;21.00;97.20
32201;DHT22;18701;45.588;5.288;2023-05-10T15:43:34;21.30;96.70
32201;DHT22;18701;45.588;5.288;2023-05-10T15:46:00;21.50;96.90
32201;DHT22;18701;45.588;5.288;2023-05-10T15:48:26;21.50;97.40
32201;DHT22;18701;45.588;5.288;2023-05-10T15:50:52;20.90;97.20
32201;DHT22;18701;45.588;5.288;2023-05-10T15:53:18;20.40;97.70
32201;DHT22;18701;45.588;5.288;2023-05-10T15:55:43;20.10;97.70
32201;DHT22;18701;45.588;5.288;2023-05-10T15:58:09;19.60;97.20